Upstream stations:
Downstream station:
SHEF ID: MTCO2 Tar Creek at 22nd Street Bridge
STATION TYPE:
PRECIP STAGE STAGE(2) RIV-FLOW BAT-LOAD
in ft ft cfs volt
Ccp-Rev Ccp-Rev Ccp-Rev Ccp-Rev Ccp-Rev
(US/Central)
03/22 00:00 0.31 6.44 6.57 368 12.17
03/22 01:00 0.04 6.90 7.04 459 12.17
03/22 02:00 0.01 7.05 7.18 491 12.17
03/22 03:00 0.00 7.07 7.20 495 12.17
03/22 04:00 0.00 7.02 7.16 484 12.17
03/22 05:00 0.00 7.01 7.12 482 12.17
03/22 06:00 0.00 6.97 7.08 473 12.17
03/22 07:00 0.00 7.00 7.09 480 12.17
03/22 08:00 0.00 7.03 7.12 486 12.17
03/22 09:00 0.00 7.02 7.15 484 12.25
03/22 10:00 0.00 7.05 7.21 491 12.25
03/22 11:00 0.00 7.10 7.26 502 12.33
03/22 12:00 0.00 7.13 7.29 509 12.41
03/22 13:00 0.00 7.13 7.30 509 12.57
03/22 14:00 0.00 7.13 7.29 509 12.57
03/22 15:00 0.01 7.07 7.24 495 12.89
03/22 16:00 0.00 7.03 7.18 486 13.29
03/22 17:00 0.00 6.95 7.11 469 12.97
03/22 18:00 0.00 6.87 7.00 453 12.81
03/22 19:00 0.01 6.75 6.88 429 12.57
03/22 20:00 0.00 6.63 6.74 405 12.41
03/22 21:00 0.02 6.48 6.59 376 12.41
03/22 22:00 0.01 6.37 6.48 355 12.41
03/22 23:00 0.01 6.28 6.37 338 12.33